createdAt,value
2018-04-15T00:02:08.813Z,8.90
2018-04-15T00:04:36.294Z,8.90
2018-04-15T00:07:04.561Z,8.90
2018-04-15T00:09:32.042Z,8.80
2018-04-15T00:11:59.553Z,8.90
2018-04-15T00:14:27.042Z,8.80
2018-04-15T00:16:54.525Z,8.80
2018-04-15T00:19:22.021Z,8.80
2018-04-15T00:21:49.509Z,8.70
2018-04-15T00:24:17.006Z,8.60
2018-04-15T00:26:44.482Z,8.60
2018-04-15T00:29:11.985Z,8.50
2018-04-15T00:31:39.465Z,8.40
2018-04-15T00:34:07.735Z,8.30
2018-04-15T00:36:35.216Z,8.20
2018-04-15T00:39:03.477Z,8.20
2018-04-15T00:41:30.950Z,8.20
2018-04-15T00:43:59.210Z,8.10
2018-04-15T00:46:27.458Z,8.10
2018-04-15T00:48:54.958Z,8.00
2018-04-15T00:51:23.204Z,8.00
2018-04-15T00:54:02.538Z,7.90
2018-04-15T00:56:30.026Z,7.90
2018-04-15T00:58:58.298Z,7.80
2018-04-15T01:01:26.555Z,7.80
2018-04-15T01:03:54.054Z,7.70
2018-04-15T01:06:22.304Z,7.80
2018-04-15T01:08:50.566Z,7.70
2018-04-15T01:11:18.057Z,7.70
2018-04-15T01:13:45.554Z,7.70
2018-04-15T01:16:13.035Z,7.80
2018-04-15T01:18:40.536Z,7.70
2018-04-15T01:21:08.781Z,7.70
2018-04-15T01:23:36.260Z,7.70
2018-04-15T01:26:04.535Z,7.70
2018-04-15T01:28:32.017Z,7.70
2018-04-15T01:31:00.289Z,7.70
2018-04-15T01:33:28.537Z,7.70
2018-04-15T01:35:56.028Z,7.60
2018-04-15T01:38:24.270Z,7.70
2018-04-15T01:40:51.765Z,7.60
2018-04-15T01:43:20.009Z,7.60
2018-04-15T01:45:47.509Z,7.60
2018-04-15T01:48:14.990Z,7.60
2018-04-15T01:50:42.481Z,7.60
2018-04-15T01:53:09.966Z,7.60
2018-04-15T01:55:38.274Z,7.60
2018-04-15T01:58:05.762Z,7.60
2018-04-15T02:00:33.262Z,7.60
2018-04-15T02:03:01.531Z,7.50
2018-04-15T02:05:29.796Z,7.50
2018-04-15T02:07:57.269Z,7.40
2018-04-15T02:10:25.531Z,7.40
2018-04-15T02:12:53.010Z,7.40
2018-04-15T02:15:21.279Z,7.40
2018-04-15T02:17:49.534Z,7.30
2018-04-15T02:20:17.026Z,7.30
2018-04-15T02:22:45.274Z,7.20
2018-04-15T02:25:12.770Z,7.20
2018-04-15T02:27:41.018Z,7.10
2018-04-15T02:30:08.512Z,7.10
2018-04-15T02:32:35.998Z,7.10
2018-04-15T02:35:03.501Z,7.10
2018-04-15T02:37:30.981Z,7.10
2018-04-15T02:39:59.240Z,7.10
2018-04-15T02:42:27.494Z,7.10
2018-04-15T02:44:54.969Z,7.00
2018-04-15T02:47:22.458Z,7.00
2018-04-15T02:49:50.709Z,7.00
2018-04-15T02:52:18.213Z,6.90
2018-04-15T02:54:45.685Z,6.90
2018-04-15T02:57:13.190Z,6.90
2018-04-15T02:59:42.268Z,6.70
2018-04-15T03:02:09.775Z,6.70
2018-04-15T03:04:37.247Z,6.70
2018-04-15T03:07:04.746Z,6.70
2018-04-15T03:09:32.221Z,6.60
2018-04-15T03:11:59.761Z,6.60
2018-04-15T03:14:27.254Z,6.60
2018-04-15T03:16:55.517Z,6.60
2018-04-15T03:19:22.998Z,6.50
2018-04-15T03:21:51.261Z,6.50
2018-04-15T03:24:19.505Z,6.50
2018-04-15T03:26:46.997Z,6.40
2018-04-15T03:29:15.250Z,6.50
2018-04-15T03:31:42.758Z,6.40
2018-04-15T03:34:10.257Z,6.40
2018-04-15T03:36:37.763Z,6.40
2018-04-15T03:39:06.006Z,6.30
2018-04-15T03:41:33.513Z,6.20
2018-04-15T03:44:01.006Z,6.30
2018-04-15T03:46:28.505Z,6.20
2018-04-15T03:48:55.993Z,6.20
2018-04-15T03:51:23.482Z,6.20
2018-04-15T03:53:50.978Z,6.20
2018-04-15T03:56:18.466Z,6.20
2018-04-15T03:58:45.959Z,6.20
2018-04-15T04:01:13.465Z,6.10
2018-04-15T04:03:41.730Z,6.00
2018-04-15T04:06:09.210Z,6.00
2018-04-15T04:08:37.477Z,6.00
2018-04-15T04:11:05.730Z,5.90
2018-04-15T04:13:33.225Z,5.90
2018-04-15T04:16:01.475Z,5.80
2018-04-15T04:18:40.757Z,5.80
2018-04-15T04:21:19.899Z,5.80
2018-04-15T04:23:59.190Z,5.80
2018-04-15T04:26:27.437Z,5.80
2018-04-15T04:28:54.945Z,5.70
2018-04-15T04:31:23.195Z,5.80
2018-04-15T04:33:50.693Z,5.70
2018-04-15T04:36:18.172Z,5.80
2018-04-15T04:38:45.661Z,5.80
2018-04-15T04:41:13.143Z,5.80
2018-04-15T04:43:41.414Z,5.70
2018-04-15T04:46:10.895Z,5.70
2018-04-15T04:48:38.438Z,5.70
2018-04-15T04:51:05.917Z,5.60
2018-04-15T04:53:34.350Z,5.60
2018-04-15T04:56:02.067Z,5.60
2018-04-15T04:58:29.718Z,5.50
2018-04-15T05:00:57.221Z,5.50
2018-04-15T05:03:25.483Z,5.70
2018-04-15T05:05:52.957Z,5.60
2018-04-15T05:08:21.783Z,5.80
2018-04-15T05:10:50.085Z,5.80
2018-04-15T05:13:18.817Z,5.90
2018-04-15T05:15:48.286Z,6.00
2018-04-15T05:18:15.781Z,6.00
2018-04-15T05:20:44.031Z,6.20
2018-04-15T05:23:11.542Z,6.10
2018-04-15T05:25:39.829Z,6.20
2018-04-15T05:28:07.344Z,6.30
2018-04-15T05:30:35.614Z,6.40
2018-04-15T05:33:03.886Z,6.50
2018-04-15T05:35:31.389Z,6.40
2018-04-15T05:37:58.874Z,6.50
2018-04-15T05:40:26.378Z,6.60
2018-04-15T05:42:54.628Z,6.80
2018-04-15T05:45:22.116Z,6.70
2018-04-15T05:47:50.370Z,6.90
2018-04-15T05:50:17.869Z,6.90
2018-04-15T05:52:46.122Z,7.10
2018-04-15T05:55:14.385Z,7.30
2018-04-15T05:57:41.865Z,7.20
2018-04-15T06:00:10.133Z,7.50
2018-04-15T06:02:37.621Z,7.50
2018-04-15T06:05:05.889Z,7.80
2018-04-15T06:07:34.134Z,7.90
2018-04-15T06:10:01.648Z,7.80
2018-04-15T06:12:29.121Z,8.00
2018-04-15T06:14:56.637Z,8.10
2018-04-15T06:17:25.297Z,8.60
2018-04-15T06:19:52.786Z,8.50
2018-04-15T06:22:21.023Z,8.90
2018-04-15T06:24:48.534Z,8.90
2018-04-15T06:27:16.022Z,9.00
2018-04-15T06:29:43.532Z,9.20
2018-04-15T06:32:11.773Z,9.50
2018-04-15T06:34:39.278Z,9.40
2018-04-15T06:37:07.529Z,9.80
2018-04-15T06:39:35.070Z,9.70
2018-04-15T06:42:02.549Z,9.90
2018-04-15T06:44:30.131Z,10.10
2018-04-15T06:46:58.373Z,10.30
2018-04-15T06:49:25.853Z,10.30
2018-04-15T06:51:55.501Z,10.70
2018-04-15T06:54:22.981Z,10.60
2018-04-15T06:56:50.482Z,10.80
2018-04-15T06:59:18.742Z,11.10
2018-04-15T07:01:46.234Z,11.00
2018-04-15T07:04:14.483Z,11.40
2018-04-15T07:06:41.977Z,11.30
2018-04-15T07:09:10.234Z,11.60
2018-04-15T07:11:38.505Z,11.70
2018-04-15T07:14:05.998Z,11.60
2018-04-15T07:16:33.516Z,11.80
2018-04-15T07:19:01.002Z,11.90
2018-04-15T07:21:29.261Z,12.20
2018-04-15T07:23:56.745Z,12.20
2018-04-15T07:26:24.261Z,12.40
2018-04-15T07:28:51.733Z,12.50
2018-04-15T07:31:19.229Z,12.70
2018-04-15T07:33:46.727Z,12.80
2018-04-15T07:36:14.224Z,13.00
2018-04-15T07:38:41.701Z,13.00
2018-04-15T07:41:09.962Z,13.20
2018-04-15T07:43:38.221Z,13.20
2018-04-15T07:46:05.731Z,13.20
2018-04-15T07:48:33.206Z,13.30
2018-04-15T07:51:00.713Z,13.40
2018-04-15T07:53:28.966Z,13.50
2018-04-15T07:55:56.449Z,13.40
2018-04-15T07:58:24.716Z,13.50
2018-04-15T08:00:52.200Z,13.50
2018-04-15T08:03:20.465Z,13.60
2018-04-15T08:05:48.718Z,13.70
2018-04-15T08:08:16.225Z,13.60
2018-04-15T08:10:43.713Z,13.90
2018-04-15T08:13:11.201Z,13.90
2018-04-15T08:15:38.690Z,14.00
2018-04-15T08:18:06.201Z,14.10
2018-04-15T08:20:33.686Z,14.10
2018-04-15T08:23:01.185Z,14.20
2018-04-15T08:25:28.677Z,14.30
2018-04-15T08:27:56.198Z,14.30
2018-04-15T08:30:23.678Z,14.40
2018-04-15T08:32:51.181Z,14.50
2018-04-15T08:35:18.669Z,14.50
2018-04-15T08:37:46.935Z,14.60
2018-04-15T08:40:15.189Z,14.70
2018-04-15T08:42:42.685Z,14.60
2018-04-15T08:45:10.934Z,14.70
2018-04-15T08:47:39.213Z,14.70
2018-04-15T08:50:06.729Z,14.70
2018-04-15T08:52:34.229Z,14.80
2018-04-15T08:55:01.707Z,14.80
2018-04-15T08:57:29.969Z,14.60
2018-04-15T08:59:57.449Z,14.60
2018-04-15T09:02:25.718Z,14.50
2018-04-15T09:04:54.119Z,14.60
2018-04-15T09:07:21.640Z,14.50
2018-04-15T09:09:49.126Z,14.70
2018-04-15T09:12:17.393Z,15.00
2018-04-15T09:14:45.657Z,15.10
2018-04-15T09:17:13.173Z,15.10
2018-04-15T09:19:40.654Z,15.30
2018-04-15T09:22:08.142Z,15.30
2018-04-15T09:24:35.661Z,15.30
2018-04-15T09:27:03.156Z,15.20
2018-04-15T09:29:30.673Z,15.30
2018-04-15T09:31:58.163Z,15.30
2018-04-15T09:34:25.672Z,15.40
2018-04-15T09:36:53.168Z,15.50
2018-04-15T09:39:20.665Z,15.60
2018-04-15T09:41:48.917Z,15.50
2018-04-15T09:44:16.430Z,15.50
2018-04-15T09:46:43.913Z,15.60
2018-04-15T09:49:11.412Z,15.70
2018-04-15T09:51:38.889Z,15.70
2018-04-15T09:54:07.162Z,15.70
2018-04-15T09:56:35.401Z,15.70
2018-04-15T09:59:02.905Z,15.70
2018-04-15T10:01:31.154Z,15.70
2018-04-15T10:03:58.664Z,15.70
2018-04-15T10:06:26.155Z,15.60
2018-04-15T10:08:53.665Z,15.70
2018-04-15T10:11:38.393Z,15.70
2018-04-15T10:14:05.902Z,15.80
2018-04-15T10:16:33.390Z,15.80
2018-04-15T10:19:00.899Z,15.80
2018-04-15T10:21:29.149Z,15.80
2018-04-15T10:23:56.696Z,15.70
2018-04-15T10:26:24.162Z,15.80
2018-04-15T10:28:51.641Z,15.90
2018-04-15T10:31:19.913Z,15.90
2018-04-15T10:33:48.156Z,15.90
2018-04-15T10:36:15.655Z,15.90
2018-04-15T10:38:43.988Z,16.00
2018-04-15T10:41:11.418Z,15.90
2018-04-15T10:43:38.902Z,16.00
2018-04-15T10:46:06.450Z,16.20
2018-04-15T10:48:34.661Z,16.40
2018-04-15T10:51:02.184Z,16.40
2018-04-15T10:53:30.419Z,16.60
2018-04-15T10:55:58.682Z,16.60
2018-04-15T10:58:26.167Z,16.60
2018-04-15T11:00:54.431Z,16.70
2018-04-15T11:03:21.922Z,16.60
2018-04-15T11:05:49.424Z,16.60
2018-04-15T11:08:16.907Z,16.70
2018-04-15T11:10:44.410Z,16.70
2018-04-15T11:13:11.894Z,16.80
2018-04-15T11:15:39.396Z,16.80
2018-04-15T11:18:07.645Z,16.80
2018-04-15T11:20:35.146Z,16.70
2018-04-15T11:23:03.389Z,17.00
2018-04-15T11:25:30.905Z,16.90
2018-04-15T11:27:58.380Z,16.90
2018-04-15T11:30:25.883Z,17.00
2018-04-15T11:32:54.133Z,17.20
2018-04-15T11:35:21.625Z,17.10
2018-04-15T11:37:49.881Z,17.20
2018-04-15T11:40:17.361Z,17.20
2018-04-15T11:42:45.626Z,17.10
2018-04-15T11:45:13.267Z,17.10
2018-04-15T11:47:41.833Z,17.10
2018-04-15T11:50:09.412Z,17.10
2018-04-15T11:52:37.080Z,17.00
2018-04-15T11:55:04.562Z,17.00
2018-04-15T11:57:32.820Z,17.00
2018-04-15T12:00:00.296Z,17.00
2018-04-15T12:02:28.567Z,17.10
2018-04-15T12:04:56.063Z,17.00
2018-04-15T12:07:23.598Z,17.10
2018-04-15T12:09:51.841Z,17.30
2018-04-15T12:12:19.333Z,17.20
2018-04-15T12:14:47.585Z,17.40
2018-04-15T12:17:15.123Z,17.30
2018-04-15T12:19:42.575Z,17.40
2018-04-15T12:22:10.074Z,17.30
2018-04-15T12:24:37.558Z,17.30
2018-04-15T12:27:05.821Z,17.40
2018-04-15T12:29:34.072Z,17.50
2018-04-15T12:32:01.578Z,17.50
2018-04-15T12:34:29.821Z,17.60
2018-04-15T12:36:57.316Z,17.60
2018-04-15T12:39:25.577Z,17.80
2018-04-15T12:41:53.843Z,17.90
2018-04-15T12:44:21.390Z,17.90
2018-04-15T12:46:48.885Z,18.00
2018-04-15T12:49:17.129Z,18.10
2018-04-15T12:51:44.613Z,18.00
2018-04-15T12:54:12.877Z,18.30
2018-04-15T12:56:40.350Z,18.20
2018-04-15T12:59:08.618Z,18.20
2018-04-15T13:01:36.911Z,18.20
2018-04-15T13:04:04.422Z,18.10
2018-04-15T13:06:31.906Z,18.20
2018-04-15T13:09:00.214Z,18.30
2018-04-15T13:11:27.693Z,18.30
2018-04-15T13:13:55.190Z,18.30
2018-04-15T13:16:22.721Z,18.20
2018-04-15T13:18:50.212Z,18.20
2018-04-15T13:21:17.703Z,18.20
2018-04-15T13:23:45.977Z,18.10
2018-04-15T13:26:14.233Z,18.10
2018-04-15T13:28:41.750Z,18.10
2018-04-15T13:31:09.230Z,18.20
2018-04-15T13:33:36.757Z,18.30
2018-04-15T13:36:04.266Z,18.40
2018-04-15T13:38:31.770Z,18.50
2018-04-15T13:40:59.339Z,18.60
2018-04-15T13:43:26.846Z,18.60
2018-04-15T13:45:54.325Z,18.60
2018-04-15T13:48:22.598Z,18.60
2018-04-15T13:50:50.850Z,18.70
2018-04-15T13:53:18.374Z,18.60
2018-04-15T13:55:45.853Z,18.70
2018-04-15T13:58:13.350Z,18.80
2018-04-15T14:00:41.631Z,18.70
2018-04-15T14:03:09.920Z,18.80
2018-04-15T14:05:37.421Z,18.70
2018-04-15T14:08:04.902Z,18.80
2018-04-15T14:10:32.398Z,18.80
2018-04-15T14:13:00.644Z,18.80
2018-04-15T14:15:28.142Z,18.80
2018-04-15T14:17:55.627Z,18.90
2018-04-15T14:20:23.133Z,19.00
2018-04-15T14:22:50.613Z,18.90
2018-04-15T14:25:18.152Z,18.90
2018-04-15T14:27:45.609Z,18.90
2018-04-15T14:30:13.113Z,18.90
2018-04-15T14:32:40.598Z,18.90
2018-04-15T14:35:08.101Z,18.90
2018-04-15T14:37:36.354Z,19.00
2018-04-15T14:40:03.870Z,18.90
2018-04-15T14:42:32.373Z,19.00
2018-04-15T14:44:59.876Z,19.00
2018-04-15T14:47:28.135Z,19.10
2018-04-15T14:49:55.695Z,19.00
2018-04-15T14:52:24.146Z,19.10
2018-04-15T14:54:51.694Z,19.10
2018-04-15T14:57:19.216Z,19.20
2018-04-15T14:59:47.485Z,19.10
2018-04-15T15:02:14.969Z,19.10
2018-04-15T15:04:43.245Z,19.00
2018-04-15T15:07:11.503Z,18.90
2018-04-15T15:09:39.777Z,18.90
2018-04-15T15:12:07.282Z,18.80
2018-04-15T15:14:34.761Z,18.80
2018-04-15T15:17:02.269Z,18.70
2018-04-15T15:19:30.574Z,18.70
2018-04-15T15:21:58.034Z,18.70
2018-04-15T15:24:25.554Z,18.80
2018-04-15T15:26:53.031Z,18.80
2018-04-15T15:29:20.510Z,18.70
2018-04-15T15:31:48.038Z,18.70
2018-04-15T15:34:16.291Z,18.70
2018-04-15T15:36:43.794Z,18.70
2018-04-15T15:39:11.284Z,18.80
2018-04-15T15:41:38.786Z,18.80
2018-04-15T15:44:06.274Z,18.80
2018-04-15T15:46:33.777Z,18.90
2018-04-15T15:49:01.265Z,18.90
2018-04-15T15:51:29.538Z,18.90
2018-04-15T15:53:57.022Z,18.90
2018-04-15T15:56:25.286Z,18.90
2018-04-15T15:58:53.533Z,18.80
2018-04-15T16:01:21.032Z,18.70
2018-04-15T16:03:49.273Z,18.60
2018-04-15T16:06:16.762Z,18.60
2018-04-15T16:08:44.997Z,18.60
2018-04-15T16:11:12.499Z,18.50
2018-04-15T16:13:40.770Z,18.50
2018-04-15T16:16:09.039Z,18.50
2018-04-15T16:18:36.518Z,18.40
2018-04-15T16:21:04.006Z,18.40
2018-04-15T16:23:31.498Z,18.40
2018-04-15T16:25:58.992Z,18.40
2018-04-15T16:28:27.252Z,18.40
2018-04-15T16:30:54.806Z,18.30
2018-04-15T16:33:22.258Z,18.40
2018-04-15T16:35:49.742Z,18.50
2018-04-15T16:38:18.008Z,18.50
2018-04-15T16:40:45.490Z,18.40
2018-04-15T16:43:13.762Z,18.40
2018-04-15T16:45:42.006Z,18.30
2018-04-15T16:48:09.497Z,18.30
2018-04-15T16:50:37.738Z,18.20
2018-04-15T16:53:05.238Z,18.20
2018-04-15T16:55:33.485Z,18.20
2018-04-15T16:58:00.990Z,18.10
2018-04-15T17:00:28.477Z,18.10
2018-04-15T17:02:55.985Z,18.10
2018-04-15T17:05:24.237Z,17.90
2018-04-15T17:07:51.748Z,17.90
2018-04-15T17:10:19.266Z,17.90
2018-04-15T17:12:46.760Z,17.90
2018-04-15T17:15:14.240Z,17.80
2018-04-15T17:17:41.734Z,17.80
2018-04-15T17:20:09.221Z,17.70
2018-04-15T17:22:37.527Z,17.50
2018-04-15T17:25:05.780Z,17.50
2018-04-15T17:27:33.307Z,17.50
2018-04-15T17:30:00.783Z,17.40
2018-04-15T17:32:29.110Z,17.40
2018-04-15T17:34:56.626Z,17.30
2018-04-15T17:37:24.881Z,17.30
2018-04-15T17:39:52.389Z,17.20
2018-04-15T17:42:19.890Z,17.20
2018-04-15T17:44:47.467Z,17.10
2018-04-15T17:47:14.999Z,17.10
2018-04-15T17:49:42.518Z,17.00
2018-04-15T17:52:10.021Z,17.00
2018-04-15T17:54:37.518Z,16.90
2018-04-15T17:57:05.766Z,16.80
2018-04-15T17:59:33.266Z,16.80
2018-04-15T18:02:00.778Z,16.80
2018-04-15T18:04:29.431Z,16.70
2018-04-15T18:06:58.497Z,16.60
2018-04-15T18:09:26.767Z,16.60
2018-04-15T18:11:55.022Z,16.50
2018-04-15T18:14:23.326Z,16.50
2018-04-15T18:16:50.914Z,16.50
2018-04-15T18:19:18.414Z,16.50
2018-04-15T18:21:47.222Z,16.40
2018-04-15T18:24:14.686Z,16.40
2018-04-15T18:26:42.199Z,16.30
2018-04-15T18:29:09.713Z,16.30
2018-04-15T18:31:39.056Z,16.20
2018-04-15T18:34:06.553Z,16.10
2018-04-15T18:36:34.101Z,16.10
2018-04-15T18:39:01.606Z,16.10
2018-04-15T18:41:29.854Z,16.00
2018-04-15T18:43:57.368Z,15.90
2018-04-15T18:46:24.869Z,15.90
2018-04-15T18:48:52.398Z,15.90
2018-04-15T18:51:19.890Z,15.80
2018-04-15T18:53:47.546Z,15.80
2018-04-15T18:56:15.207Z,15.80
2018-04-15T18:58:43.676Z,15.70
2018-04-15T19:01:11.182Z,15.70
2018-04-15T19:03:39.434Z,15.60
2018-04-15T19:06:06.960Z,15.50
2018-04-15T19:08:34.446Z,15.60
2018-04-15T19:11:01.946Z,15.50
2018-04-15T19:13:30.213Z,15.50
2018-04-15T19:15:58.482Z,15.50
2018-04-15T19:18:25.962Z,15.40
2018-04-15T19:20:54.231Z,15.40
2018-04-15T19:23:22.481Z,15.40
2018-04-15T19:25:49.987Z,15.30
2018-04-15T19:28:17.466Z,15.40
2018-04-15T19:30:44.988Z,15.30
2018-04-15T19:33:13.257Z,15.30
2018-04-15T19:35:41.526Z,15.20
2018-04-15T19:38:09.013Z,15.20
2018-04-15T19:40:37.282Z,15.20
2018-04-15T19:43:05.540Z,15.20
2018-04-15T19:45:33.042Z,15.10
2018-04-15T19:48:00.529Z,15.10
2018-04-15T19:50:28.034Z,15.10
2018-04-15T19:52:56.290Z,15.10
2018-04-15T19:55:23.805Z,15.00
2018-04-15T19:57:51.288Z,15.10
2018-04-15T20:00:18.793Z,15.10
2018-04-15T20:02:47.050Z,15.00
2018-04-15T20:05:15.335Z,15.00
2018-04-15T20:07:42.828Z,15.00
2018-04-15T20:10:10.317Z,15.00
2018-04-15T20:12:37.818Z,15.00
2018-04-15T20:15:06.065Z,15.00
2018-04-15T20:17:33.570Z,14.90
2018-04-15T20:20:01.081Z,14.90
2018-04-15T20:22:28.573Z,14.90
2018-04-15T20:24:57.325Z,14.90
2018-04-15T20:27:24.821Z,14.80
2018-04-15T20:29:53.069Z,14.80
2018-04-15T20:32:20.573Z,14.80
2018-04-15T20:34:48.063Z,14.80
2018-04-15T20:37:15.561Z,14.80
2018-04-15T20:39:43.045Z,14.70
2018-04-15T20:42:11.317Z,14.70
2018-04-15T20:44:39.578Z,14.70
2018-04-15T20:47:07.845Z,14.70
2018-04-15T20:49:35.329Z,14.60
2018-04-15T20:52:03.603Z,14.60
2018-04-15T20:54:31.858Z,14.60
2018-04-15T20:56:59.362Z,14.60
2018-04-15T20:59:26.849Z,14.60
2018-04-15T21:01:55.349Z,14.60
2018-04-15T21:04:22.825Z,14.60
2018-04-15T21:06:50.327Z,14.60
2018-04-15T21:09:17.818Z,14.60
2018-04-15T21:11:45.323Z,14.60
2018-04-15T21:14:13.570Z,14.50
2018-04-15T21:16:41.076Z,14.50
2018-04-15T21:19:08.576Z,14.50
2018-04-15T21:21:36.053Z,14.50
2018-04-15T21:24:03.570Z,14.50
2018-04-15T21:26:31.053Z,14.50
2018-04-15T21:28:58.553Z,14.50
2018-04-15T21:31:26.801Z,14.50
2018-04-15T21:33:54.302Z,14.40
2018-04-15T21:36:21.783Z,14.50
2018-04-15T21:38:49.284Z,14.50
2018-04-15T21:41:16.768Z,14.50
2018-04-15T21:43:45.035Z,14.40
2018-04-15T21:46:13.295Z,14.40
2018-04-15T21:48:40.803Z,14.30
2018-04-15T21:51:08.290Z,14.40
2018-04-15T21:53:35.794Z,14.40
2018-04-15T21:56:04.041Z,14.30
2018-04-15T21:58:31.546Z,14.30
2018-04-15T22:00:59.789Z,14.30
2018-04-15T22:03:27.299Z,14.30
2018-04-15T22:05:54.789Z,14.30
2018-04-15T22:08:22.285Z,14.30
2018-04-15T22:10:50.538Z,14.30
2018-04-15T22:13:18.037Z,14.30
2018-04-15T22:15:45.522Z,14.30
2018-04-15T22:18:13.039Z,14.30
2018-04-15T22:20:40.517Z,14.30
2018-04-15T22:23:08.762Z,14.30
2018-04-15T22:25:36.254Z,14.20
2018-04-15T22:28:03.739Z,14.30
2018-04-15T22:30:31.242Z,14.20
2018-04-15T22:32:58.725Z,14.20
2018-04-15T22:35:26.986Z,14.20
2018-04-15T22:37:55.235Z,14.20
2018-04-15T22:40:22.733Z,14.20
2018-04-15T22:42:50.978Z,14.20
2018-04-15T22:45:18.473Z,14.10
2018-04-15T22:47:52.314Z,14.10
2018-04-15T22:50:19.807Z,14.00
2018-04-15T22:52:47.290Z,14.00
2018-04-15T22:55:15.562Z,14.00
2018-04-15T22:57:43.817Z,13.90
2018-04-15T23:00:11.318Z,13.90
2018-04-15T23:02:39.729Z,13.80
2018-04-15T23:05:07.221Z,13.80
2018-04-15T23:07:34.702Z,13.70
2018-04-15T23:10:02.965Z,13.60
2018-04-15T23:12:30.449Z,13.60
2018-04-15T23:14:58.715Z,13.50
2018-04-15T23:17:26.957Z,13.50
2018-04-15T23:19:54.466Z,13.50
2018-04-15T23:22:21.954Z,13.50
2018-04-15T23:24:49.453Z,13.40
2018-04-15T23:27:16.934Z,13.40
2018-04-15T23:29:45.205Z,13.30
2018-04-15T23:32:13.462Z,13.30
2018-04-15T23:34:40.961Z,13.20
2018-04-15T23:37:08.446Z,13.20
2018-04-15T23:39:35.957Z,13.20
2018-04-15T23:42:04.204Z,13.10
2018-04-15T23:44:31.682Z,13.00
2018-04-15T23:46:59.178Z,13.10
2018-04-15T23:49:26.664Z,13.00
2018-04-15T23:51:54.172Z,13.00
2018-04-15T23:54:22.418Z,12.90
2018-04-15T23:56:55.701Z,12.90
2018-04-15T23:59:23.192Z,12.90
